sensor_id;sensor_type;location;lat;lon;timestamp;temperature;humidity
22161;DHT22;49035;48.812;11.762;2024-03-23T00:52:53;6.30;99.90
22161;DHT22;49035;48.812;11.762;2024-03-23T00:55:21;6.00;99.90
22161;DHT22;49035;48.812;11.762;2024-03-23T00:57:53;5.80;99.90
22161;DHT22;49035;48.812;11.762;2024-03-23T01:00:22;6.00;99.90
22161;DHT22;49035;48.812;11.762;2024-03-23T01:03:08;5.90;99.90
22161;DHT22;49035;48.812;11.762;2024-03-23T01:05:43;6.00;99.90
22161;DHT22;49035;48.812;11.762;2024-03-23T01:08:17;5.90;99.90
22161;DHT22;49035;48.812;11.762;2024-03-23T01:10:59;6.00;99.90
22161;DHT22;49035;48.812;11.762;2024-03-23T01:14:03;5.70;99.90
22161;DHT22;49035;48.812;11.762;2024-03-23T01:16:49;5.70;99.90
22161;DHT22;49035;48.812;11.762;2024-03-23T01:19:41;5.40;99.90
22161;DHT22;49035;48.812;11.762;2024-03-23T01:22:14;5.50;99.90
22161;DHT22;49035;48.812;11.762;2024-03-23T01:24:59;5.40;99.90
22161;DHT22;49035;48.812;11.762;2024-03-23T01:27:49;5.40;99.90
22161;DHT22;49035;48.812;11.762;2024-03-23T01:33:45;5.50;99.90
22161;DHT22;49035;48.812;11.762;2024-03-23T01:36:32;5.50;99.90
22161;DHT22;49035;48.812;11.762;2024-03-23T01:39:23;5.60;99.90
22161;DHT22;49035;48.812;11.762;2024-03-23T01:42:08;5.60;99.90
22161;DHT22;49035;48.812;11.762;2024-03-23T01:44:45;5.50;99.90
22161;DHT22;49035;48.812;11.762;2024-03-23T01:47:23;5.50;99.90
22161;DHT22;49035;48.812;11.762;2024-03-23T01:49:51;5.20;99.90
22161;DHT22;49035;48.812;11.762;2024-03-23T01:52:24;5.30;99.90
22161;DHT22;49035;48.812;11.762;2024-03-23T01:55:04;5.30;99.90
22161;DHT22;49035;48.812;11.762;2024-03-23T01:57:41;5.30;99.90
22161;DHT22;49035;48.812;11.762;2024-03-23T02:00:13;5.30;99.90
22161;DHT22;49035;48.812;11.762;2024-03-23T02:02:53;5.30;99.90
22161;DHT22;49035;48.812;11.762;2024-03-23T02:05:44;5.40;99.90
22161;DHT22;49035;48.812;11.762;2024-03-23T02:11:09;5.20;99.90
22161;DHT22;49035;48.812;11.762;2024-03-23T02:13:59;5.00;99.90
22161;DHT22;49035;48.812;11.762;2024-03-23T02:16:41;4.90;99.90
22161;DHT22;49035;48.812;11.762;2024-03-23T02:19:11;4.80;99.90
22161;DHT22;49035;48.812;11.762;2024-03-23T02:22:06;5.00;99.90
22161;DHT22;49035;48.812;11.762;2024-03-23T02:24:51;4.60;99.90
22161;DHT22;49035;48.812;11.762;2024-03-23T02:27:21;4.50;99.90
22161;DHT22;49035;48.812;11.762;2024-03-23T02:30:09;4.60;99.90
22161;DHT22;49035;48.812;11.762;2024-03-23T02:32:44;4.50;99.90
22161;DHT22;49035;48.812;11.762;2024-03-23T02:35:21;4.60;99.90
22161;DHT22;49035;48.812;11.762;2024-03-23T02:38:27;4.40;99.90
22161;DHT22;49035;48.812;11.762;2024-03-23T02:41:14;4.30;99.90
22161;DHT22;49035;48.812;11.762;2024-03-23T02:44:01;4.50;99.90
22161;DHT22;49035;48.812;11.762;2024-03-23T02:49:46;4.40;99.90
22161;DHT22;49035;48.812;11.762;2024-03-23T02:52:19;4.20;99.90
22161;DHT22;49035;48.812;11.762;2024-03-23T02:55:29;4.10;99.90
22161;DHT22;49035;48.812;11.762;2024-03-23T02:58:01;4.10;99.90
22161;DHT22;49035;48.812;11.762;2024-03-23T03:00:39;4.20;99.90
22161;DHT22;49035;48.812;11.762;2024-03-23T03:03:23;4.20;99.90
22161;DHT22;49035;48.812;11.762;2024-03-23T03:06:12;4.20;99.90
22161;DHT22;49035;48.812;11.762;2024-03-23T03:09:06;4.20;99.90
22161;DHT22;49035;48.812;11.762;2024-03-23T03:12:31;4.20;99.90
22161;DHT22;49035;48.812;11.762;2024-03-23T03:15:07;4.10;99.90
22161;DHT22;49035;48.812;11.762;2024-03-23T03:17:58;4.10;99.90
22161;DHT22;49035;48.812;11.762;2024-03-23T03:20:32;4.20;99.90
22161;DHT22;49035;48.812;11.762;2024-03-23T03:26:06;4.00;99.90
22161;DHT22;49035;48.812;11.762;2024-03-23T03:29:00;4.10;99.90
22161;DHT22;49035;48.812;11.762;2024-03-23T03:31:43;3.80;99.90
22161;DHT22;49035;48.812;11.762;2024-03-23T03:34:24;4.10;99.90
22161;DHT22;49035;48.812;11.762;2024-03-23T03:36:55;4.20;99.90
22161;DHT22;49035;48.812;11.762;2024-03-23T03:39:34;4.10;99.90
22161;DHT22;49035;48.812;11.762;2024-03-23T03:42:38;4.20;99.90
22161;DHT22;49035;48.812;11.762;2024-03-23T03:45:24;4.70;99.90
22161;DHT22;49035;48.812;11.762;2024-03-23T03:50:51;5.20;99.90
22161;DHT22;49035;48.812;11.762;2024-03-23T03:53:29;5.20;99.90
22161;DHT22;49035;48.812;11.762;2024-03-23T03:56:08;5.30;99.90
22161;DHT22;49035;48.812;11.762;2024-03-23T03:58:50;5.40;99.90
22161;DHT22;49035;48.812;11.762;2024-03-23T04:01:25;5.50;99.90
22161;DHT22;49035;48.812;11.762;2024-03-23T04:03:59;5.70;99.90
22161;DHT22;49035;48.812;11.762;2024-03-23T04:07:03;5.80;99.90
22161;DHT22;49035;48.812;11.762;2024-03-23T04:09:36;5.70;99.90
22161;DHT22;49035;48.812;11.762;2024-03-23T04:12:07;5.60;99.90
22161;DHT22;49035;48.812;11.762;2024-03-23T04:14:51;5.60;99.90
22161;DHT22;49035;48.812;11.762;2024-03-23T04:17:44;5.60;99.90
22161;DHT22;49035;48.812;11.762;2024-03-23T04:20:36;5.30;99.90
22161;DHT22;49035;48.812;11.762;2024-03-23T04:23:13;5.80;99.90
22161;DHT22;49035;48.812;11.762;2024-03-23T04:25:46;5.60;99.90
22161;DHT22;49035;48.812;11.762;2024-03-23T04:28:17;5.90;99.90
22161;DHT22;49035;48.812;11.762;2024-03-23T04:30:47;6.10;99.90
22161;DHT22;49035;48.812;11.762;2024-03-23T04:33:15;6.20;99.90
22161;DHT22;49035;48.812;11.762;2024-03-23T04:35:49;6.40;99.90
22161;DHT22;49035;48.812;11.762;2024-03-23T04:38:18;6.50;99.90
22161;DHT22;49035;48.812;11.762;2024-03-23T04:40:44;6.40;99.90
22161;DHT22;49035;48.812;11.762;2024-03-23T04:43:19;6.20;99.90
22161;DHT22;49035;48.812;11.762;2024-03-23T04:46:01;6.30;99.90
22161;DHT22;49035;48.812;11.762;2024-03-23T04:48:30;6.10;99.90
22161;DHT22;49035;48.812;11.762;2024-03-23T04:51:12;6.00;99.90
22161;DHT22;49035;48.812;11.762;2024-03-23T04:53:55;6.10;99.90
22161;DHT22;49035;48.812;11.762;2024-03-23T04:56:33;6.10;99.90
22161;DHT22;49035;48.812;11.762;2024-03-23T04:59:35;6.10;99.90
22161;DHT22;49035;48.812;11.762;2024-03-23T05:02:30;6.10;99.90
22161;DHT22;49035;48.812;11.762;2024-03-23T05:07:59;6.10;99.90
22161;DHT22;49035;48.812;11.762;2024-03-23T05:10:49;6.30;99.90
22161;DHT22;49035;48.812;11.762;2024-03-23T05:13:15;6.10;99.90
22161;DHT22;49035;48.812;11.762;2024-03-23T05:32:58;6.30;99.90
22161;DHT22;49035;48.812;11.762;2024-03-23T05:35:26;6.50;99.90
22161;DHT22;49035;48.812;11.762;2024-03-23T05:37:57;6.70;99.90
22161;DHT22;49035;48.812;11.762;2024-03-23T05:40:37;6.50;99.90
22161;DHT22;49035;48.812;11.762;2024-03-23T05:43:17;6.60;99.90
22161;DHT22;49035;48.812;11.762;2024-03-23T05:46:03;6.70;99.90
22161;DHT22;49035;48.812;11.762;2024-03-23T05:48:33;6.70;99.90
22161;DHT22;49035;48.812;11.762;2024-03-23T05:50:58;6.80;99.90
22161;DHT22;49035;48.812;11.762;2024-03-23T05:53:24;6.80;99.90
22161;DHT22;49035;48.812;11.762;2024-03-23T05:55:51;6.70;99.90
22161;DHT22;49035;48.812;11.762;2024-03-23T05:58:19;6.70;99.90
22161;DHT22;49035;48.812;11.762;2024-03-23T06:00:48;6.80;99.90
22161;DHT22;49035;48.812;11.762;2024-03-23T06:03:14;6.40;99.90
22161;DHT22;49035;48.812;11.762;2024-03-23T06:05:42;6.30;99.90
22161;DHT22;49035;48.812;11.762;2024-03-23T06:08:08;6.30;99.90
22161;DHT22;49035;48.812;11.762;2024-03-23T06:10:38;6.50;99.90
22161;DHT22;49035;48.812;11.762;2024-03-23T06:13:03;6.40;99.90
22161;DHT22;49035;48.812;11.762;2024-03-23T06:15:29;6.60;99.90
22161;DHT22;49035;48.812;11.762;2024-03-23T06:17:56;7.10;99.90
22161;DHT22;49035;48.812;11.762;2024-03-23T06:20:22;7.50;99.90
22161;DHT22;49035;48.812;11.762;2024-03-23T06:22:50;7.60;99.90
22161;DHT22;49035;48.812;11.762;2024-03-23T06:25:16;7.90;99.90
22161;DHT22;49035;48.812;11.762;2024-03-23T06:27:42;8.20;99.90
22161;DHT22;49035;48.812;11.762;2024-03-23T06:30:08;8.40;99.90
22161;DHT22;49035;48.812;11.762;2024-03-23T06:32:33;8.50;99.90
22161;DHT22;49035;48.812;11.762;2024-03-23T06:34:59;8.60;99.90
22161;DHT22;49035;48.812;11.762;2024-03-23T06:37:25;9.00;99.90
22161;DHT22;49035;48.812;11.762;2024-03-23T06:39:51;9.20;99.90
22161;DHT22;49035;48.812;11.762;2024-03-23T06:42:16;9.30;99.90
22161;DHT22;49035;48.812;11.762;2024-03-23T06:44:43;9.10;99.90
22161;DHT22;49035;48.812;11.762;2024-03-23T06:47:12;9.40;99.90
22161;DHT22;49035;48.812;11.762;2024-03-23T06:49:38;9.40;99.90
22161;DHT22;49035;48.812;11.762;2024-03-23T06:52:04;9.70;99.90
22161;DHT22;49035;48.812;11.762;2024-03-23T06:54:30;9.70;99.90
22161;DHT22;49035;48.812;11.762;2024-03-23T06:56:58;9.80;99.90
22161;DHT22;49035;48.812;11.762;2024-03-23T06:59:26;9.80;99.90
22161;DHT22;49035;48.812;11.762;2024-03-23T07:01:55;9.60;99.90
22161;DHT22;49035;48.812;11.762;2024-03-23T07:04:24;9.70;99.90
22161;DHT22;49035;48.812;11.762;2024-03-23T07:06:50;10.00;99.90
22161;DHT22;49035;48.812;11.762;2024-03-23T07:09:15;9.70;99.90
22161;DHT22;49035;48.812;11.762;2024-03-23T07:11:41;10.10;99.90
22161;DHT22;49035;48.812;11.762;2024-03-23T07:14:07;10.10;99.90
22161;DHT22;49035;48.812;11.762;2024-03-23T07:16:33;10.20;99.90
22161;DHT22;49035;48.812;11.762;2024-03-23T07:18:58;9.90;99.90
22161;DHT22;49035;48.812;11.762;2024-03-23T07:21:24;9.80;99.90
22161;DHT22;49035;48.812;11.762;2024-03-23T07:23:49;9.50;99.90
22161;DHT22;49035;48.812;11.762;2024-03-23T07:26:15;9.20;99.90
22161;DHT22;49035;48.812;11.762;2024-03-23T07:28:42;9.20;99.90
22161;DHT22;49035;48.812;11.762;2024-03-23T07:31:13;9.30;99.90
22161;DHT22;49035;48.812;11.762;2024-03-23T07:33:45;9.20;99.90
22161;DHT22;49035;48.812;11.762;2024-03-23T07:36:11;9.20;99.90
22161;DHT22;49035;48.812;11.762;2024-03-23T07:38:36;9.30;99.90
22161;DHT22;49035;48.812;11.762;2024-03-23T07:41:10;9.60;99.90
22161;DHT22;49035;48.812;11.762;2024-03-23T07:43:39;9.80;99.90
22161;DHT22;49035;48.812;11.762;2024-03-23T07:46:06;9.70;99.90
22161;DHT22;49035;48.812;11.762;2024-03-23T07:48:32;9.70;99.90
22161;DHT22;49035;48.812;11.762;2024-03-23T07:53:34;9.50;99.90
22161;DHT22;49035;48.812;11.762;2024-03-23T07:56:06;9.30;99.90
22161;DHT22;49035;48.812;11.762;2024-03-23T07:58:35;9.30;99.90
22161;DHT22;49035;48.812;11.762;2024-03-23T08:01:05;9.30;99.90
22161;DHT22;49035;48.812;11.762;2024-03-23T08:03:35;9.10;99.90
22161;DHT22;49035;48.812;11.762;2024-03-23T08:06:11;9.40;99.90
22161;DHT22;49035;48.812;11.762;2024-03-23T08:08:43;9.10;99.90
22161;DHT22;49035;48.812;11.762;2024-03-23T08:11:15;8.70;99.90
22161;DHT22;49035;48.812;11.762;2024-03-23T08:13:48;8.80;99.90
22161;DHT22;49035;48.812;11.762;2024-03-23T08:16:14;9.10;99.90
22161;DHT22;49035;48.812;11.762;2024-03-23T08:18:42;8.80;99.90
22161;DHT22;49035;48.812;11.762;2024-03-23T08:21:08;8.50;99.90
22161;DHT22;49035;48.812;11.762;2024-03-23T08:23:36;8.40;99.90
22161;DHT22;49035;48.812;11.762;2024-03-23T08:26:11;8.80;99.90
22161;DHT22;49035;48.812;11.762;2024-03-23T08:28:38;8.90;99.90
22161;DHT22;49035;48.812;11.762;2024-03-23T08:31:07;8.90;99.90
22161;DHT22;49035;48.812;11.762;2024-03-23T08:33:39;9.00;99.90
22161;DHT22;49035;48.812;11.762;2024-03-23T08:36:12;8.80;99.90
22161;DHT22;49035;48.812;11.762;2024-03-23T08:38:39;8.90;99.90
22161;DHT22;49035;48.812;11.762;2024-03-23T08:41:13;8.60;99.90
22161;DHT22;49035;48.812;11.762;2024-03-23T08:43:43;9.10;99.90
22161;DHT22;49035;48.812;11.762;2024-03-23T08:46:20;9.00;99.90
22161;DHT22;49035;48.812;11.762;2024-03-23T08:48:48;9.10;99.90
22161;DHT22;49035;48.812;11.762;2024-03-23T08:51:19;9.10;99.90
22161;DHT22;49035;48.812;11.762;2024-03-23T08:53:46;9.30;99.90
22161;DHT22;49035;48.812;11.762;2024-03-23T08:56:19;9.50;99.90
22161;DHT22;49035;48.812;11.762;2024-03-23T08:58:56;9.60;99.90
22161;DHT22;49035;48.812;11.762;2024-03-23T09:01:28;9.90;99.90
22161;DHT22;49035;48.812;11.762;2024-03-23T09:04:11;10.30;99.90
22161;DHT22;49035;48.812;11.762;2024-03-23T09:06:37;10.50;99.90
22161;DHT22;49035;48.812;11.762;2024-03-23T09:09:03;10.50;99.90
22161;DHT22;49035;48.812;11.762;2024-03-23T09:11:37;10.80;99.90
22161;DHT22;49035;48.812;11.762;2024-03-23T09:14:14;10.80;99.90
22161;DHT22;49035;48.812;11.762;2024-03-23T09:16:49;10.80;99.90
22161;DHT22;49035;48.812;11.762;2024-03-23T09:22:48;10.50;99.90
22161;DHT22;49035;48.812;11.762;2024-03-23T09:32:41;11.10;99.90
22161;DHT22;49035;48.812;11.762;2024-03-23T09:46:40;11.10;99.90
22161;DHT22;49035;48.812;11.762;2024-03-23T09:52:41;11.90;99.90
22161;DHT22;49035;48.812;11.762;2024-03-23T09:55:35;11.70;99.90
22161;DHT22;49035;48.812;11.762;2024-03-23T09:58:11;11.90;99.90
22161;DHT22;49035;48.812;11.762;2024-03-23T10:08:19;12.30;99.90
22161;DHT22;49035;48.812;11.762;2024-03-23T10:14:58;12.30;99.90
22161;DHT22;49035;48.812;11.762;2024-03-23T10:27:38;11.60;99.70
22161;DHT22;49035;48.812;11.762;2024-03-23T10:30:39;11.80;99.90
22161;DHT22;49035;48.812;11.762;2024-03-23T10:33:26;12.20;99.50
22161;DHT22;49035;48.812;11.762;2024-03-23T10:36:16;12.00;98.00
22161;DHT22;49035;48.812;11.762;2024-03-23T10:38:46;12.00;97.60
22161;DHT22;49035;48.812;11.762;2024-03-23T10:41:37;12.10;96.50
22161;DHT22;49035;48.812;11.762;2024-03-23T10:44:14;12.20;97.90
22161;DHT22;49035;48.812;11.762;2024-03-23T10:46:54;12.40;97.80
22161;DHT22;49035;48.812;11.762;2024-03-23T10:49:26;12.10;96.60
22161;DHT22;49035;48.812;11.762;2024-03-23T10:51:52;11.00;98.50
22161;DHT22;49035;48.812;11.762;2024-03-23T10:54:24;11.00;98.60
22161;DHT22;49035;48.812;11.762;2024-03-23T10:57:14;11.00;98.50
22161;DHT22;49035;48.812;11.762;2024-03-23T10:59:41;10.80;99.50
22161;DHT22;49035;48.812;11.762;2024-03-23T11:02:22;10.20;98.40
22161;DHT22;49035;48.812;11.762;2024-03-23T11:04:50;10.10;99.90
22161;DHT22;49035;48.812;11.762;2024-03-23T11:09:55;10.20;99.90
22161;DHT22;49035;48.812;11.762;2024-03-23T11:15:05;9.80;99.90
22161;DHT22;49035;48.812;11.762;2024-03-23T11:17:36;9.70;99.10
22161;DHT22;49035;48.812;11.762;2024-03-23T11:20:06;9.80;98.90
22161;DHT22;49035;48.812;11.762;2024-03-23T11:22:54;9.70;99.90
22161;DHT22;49035;48.812;11.762;2024-03-23T11:25:27;9.50;99.30
22161;DHT22;49035;48.812;11.762;2024-03-23T11:27:58;9.40;99.90
22161;DHT22;49035;48.812;11.762;2024-03-23T11:30:40;9.50;99.90
22161;DHT22;49035;48.812;11.762;2024-03-23T11:33:16;10.30;99.90
22161;DHT22;49035;48.812;11.762;2024-03-23T11:35:48;10.50;98.90
22161;DHT22;49035;48.812;11.762;2024-03-23T11:38:26;10.80;99.80
22161;DHT22;49035;48.812;11.762;2024-03-23T11:41:03;10.60;98.80
22161;DHT22;49035;48.812;11.762;2024-03-23T11:43:39;10.60;99.90
22161;DHT22;49035;48.812;11.762;2024-03-23T11:46:07;10.70;99.90
22161;DHT22;49035;48.812;11.762;2024-03-23T11:48:39;10.40;99.90
22161;DHT22;49035;48.812;11.762;2024-03-23T11:51:10;10.10;99.90
22161;DHT22;49035;48.812;11.762;2024-03-23T11:53:42;9.60;97.30
22161;DHT22;49035;48.812;11.762;2024-03-23T11:56:17;9.50;97.70
22161;DHT22;49035;48.812;11.762;2024-03-23T11:59:01;9.60;98.90
22161;DHT22;49035;48.812;11.762;2024-03-23T12:01:32;9.90;97.20
22161;DHT22;49035;48.812;11.762;2024-03-23T12:04:00;10.10;97.70
22161;DHT22;49035;48.812;11.762;2024-03-23T12:06:32;10.30;97.60
22161;DHT22;49035;48.812;11.762;2024-03-23T12:09:09;10.50;96.80
22161;DHT22;49035;48.812;11.762;2024-03-23T12:11:40;10.40;96.00
22161;DHT22;49035;48.812;11.762;2024-03-23T12:14:18;10.50;94.70
22161;DHT22;49035;48.812;11.762;2024-03-23T12:16:49;10.60;92.90
22161;DHT22;49035;48.812;11.762;2024-03-23T12:19:18;10.50;93.10
22161;DHT22;49035;48.812;11.762;2024-03-23T12:21:49;10.10;92.80
22161;DHT22;49035;48.812;11.762;2024-03-23T12:24:21;9.60;92.80
22161;DHT22;49035;48.812;11.762;2024-03-23T12:26:50;9.20;93.40
22161;DHT22;49035;48.812;11.762;2024-03-23T12:29:35;9.40;94.90
22161;DHT22;49035;48.812;11.762;2024-03-23T12:32:26;9.60;95.20
22161;DHT22;49035;48.812;11.762;2024-03-23T12:35:04;9.80;93.50
22161;DHT22;49035;48.812;11.762;2024-03-23T12:37:52;9.90;93.00
22161;DHT22;49035;48.812;11.762;2024-03-23T12:40:32;9.90;93.60
22161;DHT22;49035;48.812;11.762;2024-03-23T12:43:01;9.70;94.80
22161;DHT22;49035;48.812;11.762;2024-03-23T12:45:36;9.70;94.10
22161;DHT22;49035;48.812;11.762;2024-03-23T12:48:07;9.40;94.30
22161;DHT22;49035;48.812;11.762;2024-03-23T12:50:39;9.30;95.10
22161;DHT22;49035;48.812;11.762;2024-03-23T12:53:12;9.20;95.90
22161;DHT22;49035;48.812;11.762;2024-03-23T12:55:40;9.20;97.20
22161;DHT22;49035;48.812;11.762;2024-03-23T12:58:14;9.30;95.90
22161;DHT22;49035;48.812;11.762;2024-03-23T13:00:49;9.30;95.20
22161;DHT22;49035;48.812;11.762;2024-03-23T13:03:17;9.50;92.80
22161;DHT22;49035;48.812;11.762;2024-03-23T13:05:52;9.90;91.00
22161;DHT22;49035;48.812;11.762;2024-03-23T13:08:20;10.00;91.10
22161;DHT22;49035;48.812;11.762;2024-03-23T13:11:00;9.90;92.20
22161;DHT22;49035;48.812;11.762;2024-03-23T13:13:31;10.10;91.70
22161;DHT22;49035;48.812;11.762;2024-03-23T13:16:15;10.10;92.40
22161;DHT22;49035;48.812;11.762;2024-03-23T13:18:55;10.10;89.60
22161;DHT22;49035;48.812;11.762;2024-03-23T13:21:31;10.10;88.80
22161;DHT22;49035;48.812;11.762;2024-03-23T13:24:06;10.40;91.40
22161;DHT22;49035;48.812;11.762;2024-03-23T13:26:38;10.20;90.70
22161;DHT22;49035;48.812;11.762;2024-03-23T13:29:29;10.40;87.80
22161;DHT22;49035;48.812;11.762;2024-03-23T13:32:10;10.30;89.40
22161;DHT22;49035;48.812;11.762;2024-03-23T13:34:58;9.90;89.00
22161;DHT22;49035;48.812;11.762;2024-03-23T13:40:24;9.70;89.80
22161;DHT22;49035;48.812;11.762;2024-03-23T13:43:28;9.60;90.20
22161;DHT22;49035;48.812;11.762;2024-03-23T13:46:00;9.20;91.00
22161;DHT22;49035;48.812;11.762;2024-03-23T13:48:37;9.00;90.20
22161;DHT22;49035;48.812;11.762;2024-03-23T13:51:06;9.10;90.40
22161;DHT22;49035;48.812;11.762;2024-03-23T13:53:39;9.10;91.30
22161;DHT22;49035;48.812;11.762;2024-03-23T13:56:32;9.10;92.80
22161;DHT22;49035;48.812;11.762;2024-03-23T13:58:58;8.90;93.90
22161;DHT22;49035;48.812;11.762;2024-03-23T14:01:25;9.00;94.90
22161;DHT22;49035;48.812;11.762;2024-03-23T14:03:58;8.60;95.90
22161;DHT22;49035;48.812;11.762;2024-03-23T14:06:37;8.70;96.70
22161;DHT22;49035;48.812;11.762;2024-03-23T14:09:12;8.90;96.90
22161;DHT22;49035;48.812;11.762;2024-03-23T14:11:49;8.90;97.00
22161;DHT22;49035;48.812;11.762;2024-03-23T14:17:11;9.30;97.10
22161;DHT22;49035;48.812;11.762;2024-03-23T14:20:10;9.40;97.20
22161;DHT22;49035;48.812;11.762;2024-03-23T14:22:49;9.50;97.50
22161;DHT22;49035;48.812;11.762;2024-03-23T14:28:26;9.60;97.30
22161;DHT22;49035;48.812;11.762;2024-03-23T14:31:08;9.60;97.60
22161;DHT22;49035;48.812;11.762;2024-03-23T14:33:57;9.70;97.90
22161;DHT22;49035;48.812;11.762;2024-03-23T14:36:55;9.80;97.70
22161;DHT22;49035;48.812;11.762;2024-03-23T14:39:34;9.60;97.40
22161;DHT22;49035;48.812;11.762;2024-03-23T14:42:15;9.40;97.50
22161;DHT22;49035;48.812;11.762;2024-03-23T14:44:55;9.30;97.30
22161;DHT22;49035;48.812;11.762;2024-03-23T14:47:57;9.20;97.10
22161;DHT22;49035;48.812;11.762;2024-03-23T14:50:55;9.20;96.50
22161;DHT22;49035;48.812;11.762;2024-03-23T14:53:25;9.10;97.60
22161;DHT22;49035;48.812;11.762;2024-03-23T14:56:22;9.00;97.40
22161;DHT22;49035;48.812;11.762;2024-03-23T14:59:08;8.90;96.30
22161;DHT22;49035;48.812;11.762;2024-03-23T15:01:43;8.90;96.90
22161;DHT22;49035;48.812;11.762;2024-03-23T15:04:35;8.80;95.30
22161;DHT22;49035;48.812;11.762;2024-03-23T15:07:21;9.10;95.50
22161;DHT22;49035;48.812;11.762;2024-03-23T15:10:20;9.30;93.40
22161;DHT22;49035;48.812;11.762;2024-03-23T15:13:00;9.40;92.80
22161;DHT22;49035;48.812;11.762;2024-03-23T15:19:20;10.00;93.10
22161;DHT22;49035;48.812;11.762;2024-03-23T15:22:01;10.20;92.20
22161;DHT22;49035;48.812;11.762;2024-03-23T15:28:26;10.50;91.30
22161;DHT22;49035;48.812;11.762;2024-03-23T15:31:25;10.70;90.60
22161;DHT22;49035;48.812;11.762;2024-03-23T15:34:33;10.50;86.40
22161;DHT22;49035;48.812;11.762;2024-03-23T15:37:17;10.40;87.20
22161;DHT22;49035;48.812;11.762;2024-03-23T15:39:59;10.40;89.90
22161;DHT22;49035;48.812;11.762;2024-03-23T15:42:38;10.40;86.90
22161;DHT22;49035;48.812;11.762;2024-03-23T15:48:10;10.20;89.10
22161;DHT22;49035;48.812;11.762;2024-03-23T15:51:12;10.20;88.20
22161;DHT22;49035;48.812;11.762;2024-03-23T15:57:11;10.20;89.90
22161;DHT22;49035;48.812;11.762;2024-03-23T15:59:58;10.00;90.00
22161;DHT22;49035;48.812;11.762;2024-03-23T16:02:39;10.00;90.10
22161;DHT22;49035;48.812;11.762;2024-03-23T16:05:06;9.90;90.50
22161;DHT22;49035;48.812;11.762;2024-03-23T16:07:48;9.80;90.50
22161;DHT22;49035;48.812;11.762;2024-03-23T16:10:21;9.80;90.10
22161;DHT22;49035;48.812;11.762;2024-03-23T16:12:53;9.80;91.00
22161;DHT22;49035;48.812;11.762;2024-03-23T16:15:25;9.60;90.40
22161;DHT22;49035;48.812;11.762;2024-03-23T16:18:13;9.60;90.40
22161;DHT22;49035;48.812;11.762;2024-03-23T16:21:08;9.30;89.60
22161;DHT22;49035;48.812;11.762;2024-03-23T16:23:37;9.10;88.20
22161;DHT22;49035;48.812;11.762;2024-03-23T16:26:22;9.00;87.70
22161;DHT22;49035;48.812;11.762;2024-03-23T16:29:21;9.00;89.50
22161;DHT22;49035;48.812;11.762;2024-03-23T16:32:10;8.70;91.20
22161;DHT22;49035;48.812;11.762;2024-03-23T16:34:36;8.60;91.30
22161;DHT22;49035;48.812;11.762;2024-03-23T16:37:10;8.50;91.00
22161;DHT22;49035;48.812;11.762;2024-03-23T16:39:40;7.80;94.50
22161;DHT22;49035;48.812;11.762;2024-03-23T16:42:12;6.20;99.90
22161;DHT22;49035;48.812;11.762;2024-03-23T16:44:46;5.20;99.90
22161;DHT22;49035;48.812;11.762;2024-03-23T16:47:34;4.80;99.90
22161;DHT22;49035;48.812;11.762;2024-03-23T16:50:14;4.40;99.90
22161;DHT22;49035;48.812;11.762;2024-03-23T16:55:36;4.40;99.90
22161;DHT22;49035;48.812;11.762;2024-03-23T16:58:17;4.30;99.90
22161;DHT22;49035;48.812;11.762;2024-03-23T17:04:16;4.30;99.90
22161;DHT22;49035;48.812;11.762;2024-03-23T17:10:22;4.30;99.90
22161;DHT22;49035;48.812;11.762;2024-03-23T17:13:09;4.30;99.90
22161;DHT22;49035;48.812;11.762;2024-03-23T17:16:00;4.20;99.90
22161;DHT22;49035;48.812;11.762;2024-03-23T17:18:49;4.30;99.90
22161;DHT22;49035;48.812;11.762;2024-03-23T17:21:21;4.60;99.90
22161;DHT22;49035;48.812;11.762;2024-03-23T17:24:10;4.50;99.90
22161;DHT22;49035;48.812;11.762;2024-03-23T17:27:03;4.30;99.90
22161;DHT22;49035;48.812;11.762;2024-03-23T17:30:02;4.10;99.90
22161;DHT22;49035;48.812;11.762;2024-03-23T17:32:51;3.90;99.90
22161;DHT22;49035;48.812;11.762;2024-03-23T17:35:31;3.80;99.90
22161;DHT22;49035;48.812;11.762;2024-03-23T17:38:09;3.50;99.90
22161;DHT22;49035;48.812;11.762;2024-03-23T17:41:00;3.40;99.90
22161;DHT22;49035;48.812;11.762;2024-03-23T17:43:42;3.40;99.90
22161;DHT22;49035;48.812;11.762;2024-03-23T17:46:41;2.90;99.90
22161;DHT22;49035;48.812;11.762;2024-03-23T17:49:47;3.00;99.90
22161;DHT22;49035;48.812;11.762;2024-03-23T17:52:52;3.20;99.90
22161;DHT22;49035;48.812;11.762;2024-03-23T17:55:35;3.20;99.90
22161;DHT22;49035;48.812;11.762;2024-03-23T18:01:30;3.30;99.90
22161;DHT22;49035;48.812;11.762;2024-03-23T18:04:22;3.20;99.90
22161;DHT22;49035;48.812;11.762;2024-03-23T18:09:59;3.00;99.90
22161;DHT22;49035;48.812;11.762;2024-03-23T18:12:28;2.70;99.90
22161;DHT22;49035;48.812;11.762;2024-03-23T18:15:18;2.40;99.90
22161;DHT22;49035;48.812;11.762;2024-03-23T18:18:18;2.70;99.90
22161;DHT22;49035;48.812;11.762;2024-03-23T18:27:49;2.20;99.90
22161;DHT22;49035;48.812;11.762;2024-03-23T18:30:38;2.00;99.90
22161;DHT22;49035;48.812;11.762;2024-03-23T18:33:53;1.90;99.90
22161;DHT22;49035;48.812;11.762;2024-03-23T18:36:31;1.90;99.90
22161;DHT22;49035;48.812;11.762;2024-03-23T18:39:16;1.90;99.90
22161;DHT22;49035;48.812;11.762;2024-03-23T18:41:54;1.80;99.90
22161;DHT22;49035;48.812;11.762;2024-03-23T18:44:30;1.80;99.90
22161;DHT22;49035;48.812;11.762;2024-03-23T18:47:10;1.60;99.90
22161;DHT22;49035;48.812;11.762;2024-03-23T18:49:50;1.50;99.90
22161;DHT22;49035;48.812;11.762;2024-03-23T18:52:25;1.30;99.90
22161;DHT22;49035;48.812;11.762;2024-03-23T18:55:03;1.20;99.90
22161;DHT22;49035;48.812;11.762;2024-03-23T18:57:57;1.20;99.90
22161;DHT22;49035;48.812;11.762;2024-03-23T19:00:54;0.90;99.90
22161;DHT22;49035;48.812;11.762;2024-03-23T19:03:34;0.90;99.90
22161;DHT22;49035;48.812;11.762;2024-03-23T19:06:12;0.90;99.90
22161;DHT22;49035;48.812;11.762;2024-03-23T19:08:54;1.20;99.90
22161;DHT22;49035;48.812;11.762;2024-03-23T19:11:33;1.10;99.90
22161;DHT22;49035;48.812;11.762;2024-03-23T19:14:33;1.20;99.90
22161;DHT22;49035;48.812;11.762;2024-03-23T19:17:26;1.30;99.90
22161;DHT22;49035;48.812;11.762;2024-03-23T19:20:05;1.20;99.90
22161;DHT22;49035;48.812;11.762;2024-03-23T19:22:39;1.10;99.90
22161;DHT22;49035;48.812;11.762;2024-03-23T19:25:07;0.90;99.90
22161;DHT22;49035;48.812;11.762;2024-03-23T19:28:11;1.00;99.90
22161;DHT22;49035;48.812;11.762;2024-03-23T19:30:52;0.90;99.90
22161;DHT22;49035;48.812;11.762;2024-03-23T19:33:23;1.00;99.90
22161;DHT22;49035;48.812;11.762;2024-03-23T19:36:11;1.20;99.90
22161;DHT22;49035;48.812;11.762;2024-03-23T19:38:51;1.40;99.90
22161;DHT22;49035;48.812;11.762;2024-03-23T19:41:33;1.60;99.90